CDT,Max TemperatureF,Mean TemperatureF,Min TemperatureF,Max Dew PointF,MeanDew PointF,Min DewpointF,Max Humidity, Mean Humidity, Min Humidity, Max Sea Level PressureIn, Mean Sea Level PressureIn, Min Sea Level PressureIn, Max VisibilityMiles, Mean VisibilityMiles, Min VisibilityMiles, Max Wind SpeedMPH, Mean Wind SpeedMPH, Max Gust SpeedMPH,PrecipitationIn, CloudCover, Events, WindDirDegrees
2013-10-1,78,66,51,54,44,28,82,53,16,30.00,29.87,29.71,10,10,7,15,10,20,0.00,0,,286
2013-10-2,82,64,46,63,47,32,83,52,22,30.03,29.94,29.83,10,10,9,21,8,29,0.00,2,,131
2013-10-3,75,67,59,66,63,59,100,92,65,29.87,29.82,29.77,10,8,0,14,7,23,0.49,6,Rain,54
2013-10-4,71,65,59,68,62,59,100,95,73,29.91,29.82,29.67,10,6,0,16,11,22,0.16,7,Fog-Rain,70
2013-10-5,64,52,41,64,40,34,100,69,44,29.87,29.80,29.74,10,10,10,22,11,29,0.00,4,,219
2013-10-6,51,46,42,50,44,37,100,91,71,29.91,29.77,29.72,10,8,1,18,6,28,0.05,7,Rain,287
2013-10-7,71,56,42,50,44,39,93,70,38,30.00,29.96,29.91,10,10,8,10,7,13,0.00,0,,259
2013-10-8,77,62,48,46,43,39,82,54,26,29.99,29.94,29.87,10,10,10,29,14,39,0.00,0,,183
2013-10-9,75,63,51,50,47,43,88,60,31,30.06,30.02,29.97,10,10,10,21,15,26,0.00,0,,169
2013-10-10,78,64,51,54,48,46,82,60,34,30.04,29.96,29.86,10,10,10,24,12,30,0.00,0,,160
2013-10-11,69,61,53,61,55,46,88,74,64,29.86,29.75,29.65,10,10,2,29,17,44,0.13,3,Rain,168
2013-10-12,64,52,41,45,35,25,93,59,24,30.24,30.02,29.82,10,10,10,25,11,31,0.00,0,,262
2013-10-13,62,48,33,36,32,30,87,55,30,30.44,30.36,30.25,10,10,9,9,5,,0.00,0,,29
2013-10-14,60,52,44,50,36,30,100,59,36,30.36,30.13,29.80,10,9,2,20,10,34,0.88,4,Rain,128
2013-10-15,55,50,44,55,47,43,100,96,87,29.89,29.77,29.69,10,8,2,24,18,33,0.06,8,Rain,241
2013-10-16,50,44,37,45,41,36,100,87,62,30.00,29.95,29.89,10,9,3,15,10,22,0.00,6,Rain,308
2013-10-17,60,46,33,43,36,32,93,75,36,29.94,29.87,29.79,10,10,5,17,8,25,0.00,3,,256
2013-10-18,51,43,35,37,31,23,93,65,35,30.03,29.97,29.90,10,10,9,15,11,23,0.00,5,,293
2013-10-19,53,42,32,41,33,28,100,80,47,29.90,29.81,29.74,10,10,5,18,9,25,0.00,4,,271
2013-10-20,59,46,32,41,34,28,93,71,48,29.94,29.76,29.66,10,10,8,26,10,36,0.00,6,Rain,238
2013-10-21,44,36,28,34,28,25,93,73,46,30.02,29.98,29.94,10,10,6,20,9,29,0.00,6,,302
2013-10-22,42,37,32,30,27,23,87,67,49,30.06,29.98,29.92,10,10,5,16,8,22,0.00,8,Rain-Snow,16
2013-10-23,39,34,28,36,27,23,93,75,56,30.12,30.06,30.03,10,10,4,16,8,22,0.00,6,Rain,299
2013-10-24,46,37,28,30,27,23,93,69,43,30.34,30.25,30.12,10,10,10,16,9,24,0.00,6,,322
2013-10-25,57,40,23,36,30,23,100,68,41,30.35,30.16,29.91,10,10,10,31,11,41,0.00,1,,220
2013-10-26,48,39,30,36,28,25,86,61,40,30.14,30.06,29.91,10,10,9,24,13,31,0.00,0,,308
2013-10-27,64,44,24,36,30,23,93,66,32,30.08,29.93,29.79,10,10,9,22,9,28,0.00,0,,226
2013-10-28,46,39,32,34,32,30,100,74,53,30.32,30.24,30.03,10,10,8,21,13,29,0.00,3,Rain,57
2013-10-29,55,46,37,48,40,30,94,75,58,30.30,30.12,30.00,10,9,3,18,10,22,0.01,7,Rain,110
2013-10-30,66,57,48,59,52,45,100,92,68,30.01,29.85,29.68,10,4,0,22,9,21,0.01,8,Fog-Rain,156
2013-10-31,46,42,39,46,41,39,100,98,87,29.68,29.55,29.45,10,8,3,15,11,21,0.00,8,,293